createdAt,value
2019-01-16T00:02:00.065Z,6.90
2019-01-16T00:04:46.503Z,6.67
2019-01-16T00:07:25.916Z,6.70
2019-01-16T00:10:01.867Z,6.33
2019-01-16T00:12:31.975Z,7.00
2019-01-16T00:15:08.297Z,6.47
2019-01-16T00:17:56.470Z,6.97
2019-01-16T00:20:26.585Z,6.80
2019-01-16T00:22:57.265Z,6.53
2019-01-16T00:25:36.434Z,6.90
2019-01-16T00:28:06.594Z,6.70
2019-01-16T00:30:42.525Z,7.23
2019-01-16T00:33:27.589Z,6.57
2019-01-16T00:36:03.414Z,6.63
2019-01-16T00:38:33.521Z,6.57
2019-01-16T00:41:09.823Z,7.13
2019-01-16T00:43:42.867Z,7.80
2019-01-16T00:46:18.963Z,7.20
2019-01-16T00:49:04.131Z,7.10
2019-01-16T00:51:37.582Z,6.70
2019-01-16T00:54:23.989Z,7.17
2019-01-16T00:57:11.150Z,6.30
2019-01-16T00:59:41.262Z,6.90
2019-01-16T01:02:15.172Z,6.92
2019-01-16T01:04:52.092Z,6.45
2019-01-16T01:07:39.064Z,7.10
2019-01-16T01:10:27.103Z,7.40
2019-01-16T01:12:57.280Z,7.40
2019-01-16T01:15:30.717Z,7.62
2019-01-16T01:18:10.603Z,6.70
2019-01-16T01:20:47.556Z,6.37
2019-01-16T01:23:29.540Z,7.07
2019-01-16T01:25:59.664Z,6.80
2019-01-16T01:28:32.725Z,6.87
2019-01-16T01:31:05.815Z,7.63
2019-01-16T01:33:52.190Z,6.77
2019-01-16T01:36:38.880Z,7.10
2019-01-16T01:39:10.320Z,6.72
2019-01-16T01:41:56.994Z,7.00
2019-01-16T01:44:30.407Z,6.95
2019-01-16T01:47:00.536Z,7.30
2019-01-16T01:49:39.545Z,6.97
2019-01-16T01:52:10.264Z,6.97
2019-01-16T01:54:43.042Z,6.80
2019-01-16T01:57:19.768Z,6.50
2019-01-16T01:59:58.968Z,6.35
2019-01-16T02:02:35.303Z,6.62
2019-01-16T02:05:24.263Z,6.53
2019-01-16T02:07:57.921Z,6.30
2019-01-16T02:10:34.406Z,6.30
2019-01-16T02:13:21.046Z,6.83
2019-01-16T02:16:03.133Z,5.97
2019-01-16T02:18:39.024Z,6.20
2019-01-16T02:21:11.929Z,6.00
2019-01-16T02:23:48.616Z,6.78
2019-01-16T02:26:35.631Z,5.53
2019-01-16T02:29:24.195Z,5.85
2019-01-16T02:32:00.313Z,6.13
2019-01-16T02:34:36.163Z,5.77
2019-01-16T02:37:06.507Z,5.47
2019-01-16T02:39:45.460Z,5.80
2019-01-16T02:42:15.561Z,6.43
2019-01-16T02:44:54.897Z,5.90
2019-01-16T02:47:27.571Z,6.07
2019-01-16T02:50:13.595Z,5.50
2019-01-16T02:53:02.037Z,5.97
2019-01-16T02:55:34.747Z,6.27
2019-01-16T02:58:08.712Z,6.28
2019-01-16T03:00:45.299Z,5.80
2019-01-16T03:03:18.191Z,6.27
2019-01-16T03:06:04.746Z,5.80
2019-01-16T03:08:50.125Z,6.03
2019-01-16T03:11:29.141Z,6.30
2019-01-16T03:13:59.251Z,5.77
2019-01-16T03:16:45.283Z,6.00
2019-01-16T03:19:15.394Z,5.92
2019-01-16T03:22:02.564Z,6.40
2019-01-16T03:24:49.202Z,6.70
2019-01-16T03:27:22.238Z,6.03
2019-01-16T03:29:52.904Z,5.37
2019-01-16T03:32:41.134Z,5.33
2019-01-16T03:35:14.842Z,5.35
2019-01-16T03:37:47.522Z,5.30
2019-01-16T03:40:26.548Z,4.70
2019-01-16T03:43:12.340Z,5.08
2019-01-16T03:45:54.992Z,4.80
2019-01-16T03:48:30.889Z,5.03
2019-01-16T03:51:01.568Z,5.17
2019-01-16T03:53:48.088Z,4.77
2019-01-16T03:56:23.732Z,4.70
2019-01-16T03:59:10.040Z,4.70
2019-01-16T04:01:40.144Z,4.70
2019-01-16T04:04:10.259Z,4.37
2019-01-16T04:06:40.374Z,4.40
2019-01-16T04:09:26.749Z,4.60
2019-01-16T04:11:59.599Z,4.07
2019-01-16T04:14:29.706Z,4.00
2019-01-16T04:17:08.796Z,4.10
2019-01-16T04:19:38.912Z,3.50
2019-01-16T04:22:25.285Z,4.00
2019-01-16T04:24:55.400Z,3.53
2019-01-16T04:27:41.810Z,2.97
2019-01-16T04:30:23.933Z,3.20
2019-01-16T04:33:10.539Z,3.47
2019-01-16T04:35:40.649Z,2.90
2019-01-16T04:38:13.474Z,3.03
2019-01-16T04:40:44.129Z,3.08
2019-01-16T04:43:23.207Z,3.10
2019-01-16T04:46:02.586Z,3.15
2019-01-16T04:48:35.698Z,2.70
2019-01-16T04:51:11.669Z,2.92
2019-01-16T04:53:45.289Z,2.90
2019-01-16T04:56:18.613Z,3.08
2019-01-16T04:58:57.411Z,3.00
2019-01-16T05:01:33.300Z,3.17
2019-01-16T05:04:19.720Z,3.03
2019-01-16T05:06:49.827Z,2.83
2019-01-16T05:09:23.388Z,2.50
2019-01-16T05:11:55.980Z,2.80
2019-01-16T05:14:42.334Z,3.17
2019-01-16T05:17:15.422Z,2.92
2019-01-16T05:19:52.170Z,2.90
2019-01-16T05:22:30.905Z,2.87
2019-01-16T05:25:16.327Z,3.00
2019-01-16T05:28:03.600Z,2.98
2019-01-16T05:30:50.655Z,3.10
2019-01-16T05:33:21.399Z,3.27
2019-01-16T05:36:08.498Z,2.87
2019-01-16T05:38:55.161Z,3.40
2019-01-16T05:41:28.604Z,3.95
2019-01-16T05:43:59.347Z,3.70
2019-01-16T05:46:35.293Z,3.90
2019-01-16T05:49:12.174Z,3.42
2019-01-16T05:51:42.860Z,5.03
2019-01-16T05:54:29.198Z,4.10
2019-01-16T05:57:15.667Z,3.70
2019-01-16T05:59:46.328Z,3.70
2019-01-16T06:02:25.560Z,3.60
2019-01-16T06:04:56.253Z,3.80
2019-01-16T06:07:44.255Z,3.17
2019-01-16T06:10:24.055Z,3.23
2019-01-16T06:13:11.014Z,3.45
2019-01-16T06:15:41.111Z,3.20
2019-01-16T06:18:14.177Z,3.37
2019-01-16T06:20:44.851Z,2.87
2019-01-16T06:23:31.604Z,2.95
2019-01-16T06:26:17.547Z,3.35
2019-01-16T06:28:59.357Z,3.37
2019-01-16T06:31:36.035Z,3.42
2019-01-16T06:34:18.735Z,2.80
2019-01-16T06:36:52.613Z,2.65
2019-01-16T06:39:28.717Z,3.30
2019-01-16T06:42:04.549Z,2.80
2019-01-16T06:44:37.627Z,2.63
2019-01-16T06:47:14.011Z,2.92
2019-01-16T06:49:47.641Z,2.67
2019-01-16T06:52:26.240Z,2.93
2019-01-16T06:54:56.351Z,2.50
2019-01-16T06:57:29.279Z,2.93
2019-01-16T06:59:59.387Z,2.97
2019-01-16T07:02:29.507Z,2.87
2019-01-16T07:05:02.064Z,2.58
2019-01-16T07:07:40.961Z,2.70
2019-01-16T07:10:24.742Z,3.20
2019-01-16T07:13:09.877Z,3.30
2019-01-16T07:15:42.735Z,3.07
2019-01-16T07:18:15.730Z,2.70
2019-01-16T07:20:46.408Z,3.30
2019-01-16T07:23:17.088Z,3.25
2019-01-16T07:25:50.818Z,2.98
2019-01-16T07:28:30.141Z,2.70
2019-01-16T07:31:03.095Z,2.67
2019-01-16T07:33:42.298Z,2.87
2019-01-16T07:36:28.814Z,3.13
2019-01-16T07:39:11.048Z,2.97
2019-01-16T07:41:58.405Z,3.10
2019-01-16T07:44:31.574Z,3.17
2019-01-16T07:47:16.737Z,3.40
2019-01-16T07:50:04.844Z,3.00
2019-01-16T07:52:34.960Z,3.05
2019-01-16T07:55:11.964Z,3.47
2019-01-16T07:57:48.643Z,3.00
2019-01-16T08:00:35.857Z,3.08
2019-01-16T08:03:15.071Z,2.60
2019-01-16T08:05:58.067Z,2.80
2019-01-16T08:08:31.636Z,2.60
2019-01-16T08:11:18.390Z,2.20
2019-01-16T08:13:49.117Z,2.27
2019-01-16T08:16:22.536Z,2.40
2019-01-16T08:18:53.207Z,2.25
2019-01-16T08:21:29.278Z,2.30
2019-01-16T08:23:59.952Z,2.17
2019-01-16T08:26:36.337Z,2.22
2019-01-16T08:29:18.763Z,2.10
2019-01-16T08:31:49.508Z,2.58
2019-01-16T08:34:32.419Z,2.20
2019-01-16T08:37:03.113Z,2.10
2019-01-16T08:39:39.773Z,1.98
2019-01-16T08:42:10.467Z,2.00
2019-01-16T08:44:41.232Z,1.95
2019-01-16T08:47:21.055Z,1.92
2019-01-16T08:50:03.693Z,2.00
2019-01-16T08:52:50.639Z,1.98
2019-01-16T08:55:20.785Z,1.70
2019-01-16T08:57:51.483Z,2.12
2019-01-16T09:00:31.085Z,2.00
2019-01-16T09:03:10.301Z,1.70
2019-01-16T09:05:49.732Z,1.70
2019-01-16T09:08:29.779Z,1.77
2019-01-16T09:11:18.902Z,1.85
2019-01-16T09:14:08.013Z,1.90
2019-01-16T09:16:50.710Z,1.60
2019-01-16T09:19:27.385Z,1.80
2019-01-16T09:22:00.195Z,1.72
2019-01-16T09:24:47.281Z,1.50
2019-01-16T09:27:34.340Z,1.50
2019-01-16T09:30:23.196Z,1.65
2019-01-16T09:32:56.893Z,1.72
2019-01-16T09:35:39.630Z,1.32
2019-01-16T09:38:16.256Z,1.92
2019-01-16T09:41:05.016Z,2.10
2019-01-16T09:43:38.397Z,1.92
2019-01-16T09:46:09.074Z,1.80
2019-01-16T09:48:58.093Z,1.92
2019-01-16T09:51:34.789Z,1.42
2019-01-16T09:54:14.860Z,1.75
2019-01-16T09:57:01.726Z,1.87
2019-01-16T09:59:32.526Z,1.57
2019-01-16T10:02:12.303Z,1.62
2019-01-16T10:04:51.806Z,1.50
2019-01-16T10:07:25.444Z,1.77
2019-01-16T10:10:12.328Z,1.82
2019-01-16T10:12:48.570Z,1.47
2019-01-16T10:15:28.208Z,1.80
2019-01-16T10:18:01.608Z,1.90
2019-01-16T10:20:55.545Z,1.62
2019-01-16T10:23:22.590Z,1.87
2019-01-16T10:25:53.283Z,1.80
2019-01-16T10:28:29.698Z,2.10
2019-01-16T10:31:09.177Z,1.52
2019-01-16T10:33:56.164Z,2.12
2019-01-16T10:36:32.691Z,2.02
2019-01-16T10:39:03.358Z,2.15
2019-01-16T10:41:49.412Z,2.60
2019-01-16T10:44:32.032Z,2.20
2019-01-16T10:47:08.646Z,1.90
2019-01-16T10:49:55.618Z,1.87
2019-01-16T10:52:42.689Z,1.80
2019-01-16T10:55:16.386Z,2.02
2019-01-16T10:57:55.843Z,1.87
2019-01-16T11:00:42.777Z,1.70
2019-01-16T11:03:29.771Z,2.15
2019-01-16T11:06:03.203Z,2.00
2019-01-16T11:08:33.884Z,2.30
2019-01-16T11:11:20.798Z,2.10
2019-01-16T11:14:00.759Z,1.80
2019-01-16T11:16:40.563Z,1.92
2019-01-16T11:19:11.329Z,2.00
2019-01-16T11:21:47.983Z,2.25
2019-01-16T11:24:33.755Z,3.50
2019-01-16T11:27:07.457Z,1.85
2019-01-16T11:29:38.146Z,1.90
2019-01-16T11:32:25.142Z,2.90
2019-01-16T11:35:08.207Z,4.37
2019-01-16T11:37:50.874Z,3.35
2019-01-16T11:40:36.603Z,2.92
2019-01-16T11:43:10.048Z,3.62
2019-01-16T11:45:57.418Z,1.98
2019-01-16T11:48:37.138Z,1.70
2019-01-16T11:51:07.800Z,2.02
2019-01-16T11:53:41.233Z,1.80
2019-01-16T11:56:20.664Z,1.67
2019-01-16T11:58:54.068Z,1.60
2019-01-16T12:01:27.551Z,1.52
2019-01-16T12:04:07.212Z,1.90
2019-01-16T12:06:50.017Z,1.60
2019-01-16T12:09:23.686Z,1.65
2019-01-16T12:12:10.840Z,1.60
2019-01-16T12:14:41.508Z,1.72
2019-01-16T12:17:12.250Z,1.72
2019-01-16T12:19:42.924Z,1.40
2019-01-16T12:22:19.357Z,1.62
2019-01-16T12:24:50.019Z,1.75
2019-01-16T12:27:23.516Z,1.50
2019-01-16T12:30:03.274Z,1.50
2019-01-16T12:32:42.832Z,1.67
2019-01-16T12:35:15.956Z,1.45
2019-01-16T12:37:46.659Z,1.60
2019-01-16T12:40:20.031Z,1.40
2019-01-16T12:42:50.793Z,1.55
2019-01-16T12:45:38.011Z,1.62
2019-01-16T12:48:20.611Z,1.57
2019-01-16T12:50:51.310Z,1.30
2019-01-16T12:53:38.912Z,1.55
2019-01-16T12:56:11.028Z,1.87
2019-01-16T12:58:59.751Z,1.50
2019-01-16T13:01:39.431Z,1.40
2019-01-16T13:04:10.121Z,1.72
2019-01-16T13:06:46.860Z,2.12
2019-01-16T13:09:23.366Z,1.50
2019-01-16T13:12:00.145Z,1.30
2019-01-16T13:14:30.861Z,1.42
2019-01-16T13:17:01.543Z,1.37
2019-01-16T13:19:32.226Z,2.30
2019-01-16T13:22:12.037Z,1.30
2019-01-16T13:24:42.730Z,1.30
2019-01-16T13:27:13.428Z,1.42
2019-01-16T13:29:44.097Z,1.52
2019-01-16T13:32:17.794Z,1.47
2019-01-16T13:34:54.537Z,1.67
2019-01-16T13:37:25.210Z,1.60
2019-01-16T13:40:08.170Z,1.72
2019-01-16T13:42:38.866Z,1.98
2019-01-16T13:45:26.542Z,1.90
2019-01-16T13:47:57.300Z,2.47
2019-01-16T13:50:44.458Z,2.90
2019-01-16T13:53:15.138Z,3.30
2019-01-16T13:55:51.812Z,2.85
2019-01-16T13:58:28.300Z,3.08
2019-01-16T14:00:58.968Z,2.95
2019-01-16T14:03:29.678Z,3.50
2019-01-16T14:06:00.353Z,2.87
2019-01-16T14:08:33.728Z,2.95
2019-01-16T14:11:04.564Z,3.20
2019-01-16T14:13:41.134Z,3.20
2019-01-16T14:16:14.572Z,3.50
2019-01-16T14:18:51.460Z,3.35
2019-01-16T14:21:40.556Z,3.15
2019-01-16T14:24:14.058Z,3.55
2019-01-16T14:26:44.729Z,3.70
2019-01-16T14:29:24.007Z,3.37
2019-01-16T14:32:11.141Z,3.22
2019-01-16T14:34:55.366Z,3.42
2019-01-16T14:37:53.286Z,3.80
2019-01-16T14:40:42.111Z,3.90
2019-01-16T14:43:15.632Z,4.17
2019-01-16T14:45:51.764Z,4.05
2019-01-16T14:48:22.520Z,3.80
2019-01-16T14:50:55.965Z,3.75
2019-01-16T14:53:42.955Z,3.70
2019-01-16T14:56:29.767Z,4.00
2019-01-16T14:59:12.631Z,3.92
2019-01-16T15:01:46.101Z,4.15
2019-01-16T15:04:19.733Z,4.08
2019-01-16T15:06:50.475Z,3.77
2019-01-16T15:09:23.851Z,4.05
2019-01-16T15:11:54.549Z,4.33
2019-01-16T15:14:28.165Z,4.30
2019-01-16T15:17:14.879Z,4.17
2019-01-16T15:20:04.059Z,4.20
2019-01-16T15:22:40.714Z,3.85
2019-01-16T15:25:11.655Z,5.83
2019-01-16T15:27:51.614Z,4.60
2019-01-16T15:30:28.430Z,4.60
2019-01-16T15:33:05.453Z,4.60
2019-01-16T15:35:51.568Z,4.53
2019-01-16T15:38:28.302Z,4.37
2019-01-16T15:41:15.396Z,4.67
2019-01-16T15:43:46.134Z,4.62
2019-01-16T15:46:16.245Z,4.75
2019-01-16T15:49:03.470Z,4.72
2019-01-16T15:51:43.233Z,4.87
2019-01-16T15:54:25.727Z,4.87
2019-01-16T15:57:08.252Z,4.85
2019-01-16T15:59:51.162Z,5.12
2019-01-16T16:02:21.326Z,4.95
2019-01-16T16:04:52.014Z,5.28
2019-01-16T16:07:34.380Z,4.75
2019-01-16T16:10:24.542Z,4.72
2019-01-16T16:13:01.229Z,5.80
2019-01-16T16:15:43.348Z,6.05
2019-01-16T16:18:16.792Z,5.25
2019-01-16T16:20:47.484Z,5.90
2019-01-16T16:23:21.164Z,5.53
2019-01-16T16:26:08.262Z,6.25
2019-01-16T16:28:38.966Z,6.22
2019-01-16T16:31:09.722Z,5.60
2019-01-16T16:33:40.390Z,5.70
2019-01-16T16:36:23.093Z,5.55
2019-01-16T16:38:53.786Z,5.47
2019-01-16T16:41:36.157Z,5.62
2019-01-16T16:44:06.989Z,5.47
2019-01-16T16:46:43.558Z,5.85
2019-01-16T16:49:30.523Z,5.92
2019-01-16T16:52:06.615Z,5.20
2019-01-16T16:54:52.356Z,5.85
2019-01-16T16:57:22.459Z,4.97
2019-01-16T16:59:53.145Z,5.10
2019-01-16T17:02:23.893Z,5.00
2019-01-16T17:05:11.343Z,4.97
2019-01-16T17:07:44.990Z,5.50
2019-01-16T17:10:21.869Z,4.72
2019-01-16T17:12:54.953Z,4.90
2019-01-16T17:15:27.913Z,5.10
2019-01-16T17:18:01.023Z,4.80
2019-01-16T17:20:40.562Z,4.73
2019-01-16T17:23:25.615Z,4.67
2019-01-16T17:26:04.827Z,5.23
2019-01-16T17:28:34.940Z,4.50
2019-01-16T17:31:14.847Z,5.10
2019-01-16T17:33:47.746Z,4.97
2019-01-16T17:36:36.289Z,4.97
2019-01-16T17:39:14.924Z,4.77
2019-01-16T17:41:50.835Z,5.00
2019-01-16T17:44:20.931Z,4.27
2019-01-16T17:46:57.223Z,4.77
2019-01-16T17:49:27.326Z,4.93
2019-01-16T17:51:57.598Z,4.67
2019-01-16T17:54:33.746Z,5.17
2019-01-16T17:57:20.044Z,5.23
2019-01-16T18:00:06.190Z,4.63
2019-01-16T18:02:41.736Z,5.27
2019-01-16T18:05:11.938Z,5.50
2019-01-16T18:07:44.771Z,5.63
2019-01-16T18:10:21.063Z,5.50
2019-01-16T18:13:07.837Z,5.50
2019-01-16T18:15:54.416Z,4.97
2019-01-16T18:18:30.272Z,5.50
2019-01-16T18:21:00.392Z,5.50
2019-01-16T18:23:48.617Z,5.30
2019-01-16T18:26:21.571Z,5.97
2019-01-16T18:28:51.680Z,5.73
2019-01-16T18:31:21.896Z,5.80
2019-01-16T18:33:54.907Z,5.10
2019-01-16T18:36:33.583Z,5.30
2019-01-16T18:39:18.871Z,5.83
2019-01-16T18:42:05.217Z,5.90
2019-01-16T18:44:44.655Z,6.00
2019-01-16T18:47:17.625Z,5.67
2019-01-16T18:50:03.931Z,5.83
2019-01-16T18:52:40.083Z,6.20
2019-01-16T18:55:19.583Z,5.87
2019-01-16T18:57:49.733Z,6.03
2019-01-16T19:00:36.845Z,6.33
2019-01-16T19:03:07.060Z,6.50
2019-01-16T19:05:44.715Z,6.10
2019-01-16T19:08:29.827Z,6.70
2019-01-16T19:11:11.595Z,6.47
2019-01-16T19:13:44.381Z,6.70
2019-01-16T19:16:23.003Z,6.80
2019-01-16T19:18:59.179Z,6.70
2019-01-16T19:21:45.537Z,6.93
2019-01-16T19:24:32.317Z,6.80
2019-01-16T19:27:02.415Z,6.47
2019-01-16T19:29:44.599Z,6.33
2019-01-16T19:32:17.501Z,6.60
2019-01-16T19:35:03.730Z,6.90
2019-01-16T19:37:42.590Z,7.57
2019-01-16T19:40:13.772Z,7.10
2019-01-16T19:42:49.790Z,7.10
2019-01-16T19:45:28.900Z,7.30
2019-01-16T19:48:07.938Z,6.90
2019-01-16T19:50:43.829Z,6.90
2019-01-16T19:53:14.105Z,7.17
2019-01-16T19:55:59.090Z,7.03
2019-01-16T19:58:45.364Z,7.20
2019-01-16T20:01:32.182Z,7.30
2019-01-16T20:04:08.258Z,6.80
2019-01-16T20:06:41.204Z,7.03
2019-01-16T20:09:17.406Z,6.83
2019-01-16T20:12:04.000Z,7.40
2019-01-16T20:14:40.180Z,6.80
2019-01-16T20:17:16.208Z,7.23
2019-01-16T20:19:52.028Z,6.57
2019-01-16T20:22:37.012Z,6.83
2019-01-16T20:25:26.796Z,7.40
2019-01-16T20:28:08.818Z,7.90
2019-01-16T20:30:38.916Z,6.50
2019-01-16T20:33:25.316Z,6.73
2019-01-16T20:36:04.169Z,6.80
2019-01-16T20:38:34.287Z,6.60
2019-01-16T20:41:13.016Z,6.93
2019-01-16T20:43:46.063Z,6.97
2019-01-16T20:46:30.917Z,6.70
2019-01-16T20:49:06.526Z,7.40
2019-01-16T20:51:36.699Z,7.07
2019-01-16T20:54:18.597Z,6.77
2019-01-16T20:57:06.702Z,6.87
2019-01-16T20:59:36.829Z,7.70
2019-01-16T21:02:22.225Z,7.63
2019-01-16T21:04:52.337Z,6.73
2019-01-16T21:07:28.227Z,6.90
2019-01-16T21:09:58.419Z,7.40
2019-01-16T21:12:43.569Z,7.00
2019-01-16T21:15:14.037Z,6.80
2019-01-16T21:17:44.147Z,6.97
2019-01-16T21:20:17.105Z,7.17
2019-01-16T21:22:56.267Z,6.77
2019-01-16T21:25:32.399Z,7.17
2019-01-16T21:28:04.919Z,7.07
2019-01-16T21:30:51.429Z,7.57
2019-01-16T21:33:37.976Z,7.13
2019-01-16T21:36:08.115Z,6.17
2019-01-16T21:38:43.779Z,7.20
2019-01-16T21:41:19.827Z,7.00
2019-01-16T21:43:58.993Z,7.03
2019-01-16T21:46:45.665Z,6.27
2019-01-16T21:49:21.985Z,7.10
2019-01-16T21:51:57.898Z,6.87
2019-01-16T21:54:28.019Z,6.80
2019-01-16T21:57:03.837Z,6.93
2019-01-16T21:59:45.948Z,6.13
2019-01-16T22:02:16.126Z,6.80
2019-01-16T22:05:02.449Z,6.60
2019-01-16T22:07:32.946Z,6.33
2019-01-16T22:10:19.990Z,6.50
2019-01-16T22:12:50.198Z,6.17
2019-01-16T22:15:38.665Z,6.10
2019-01-16T22:18:08.805Z,6.00
2019-01-16T22:20:51.113Z,6.03
2019-01-16T22:23:21.234Z,6.33
2019-01-16T22:25:51.427Z,6.17
2019-01-16T22:28:21.540Z,6.50
2019-01-16T22:30:51.718Z,5.90
2019-01-16T22:33:39.718Z,5.93
2019-01-16T22:36:21.752Z,5.73
2019-01-16T22:38:51.917Z,6.30
2019-01-16T22:41:27.988Z,5.73
2019-01-16T22:44:00.626Z,6.20
2019-01-16T22:46:30.727Z,5.40
2019-01-16T22:49:00.820Z,5.80
2019-01-16T22:51:56.220Z,5.33
2019-01-16T22:54:42.314Z,5.80
2019-01-16T22:57:21.465Z,5.07
2019-01-16T23:00:03.769Z,5.60
2019-01-16T23:02:36.619Z,5.30
2019-01-16T23:05:13.433Z,5.57
2019-01-16T23:07:49.245Z,5.63
2019-01-16T23:10:35.691Z,4.80
2019-01-16T23:13:18.191Z,4.97
2019-01-16T23:15:59.995Z,4.77
2019-01-16T23:18:32.761Z,4.40
2019-01-16T23:21:03.011Z,4.67
2019-01-16T23:23:36.195Z,4.67
2019-01-16T23:26:18.209Z,4.20
2019-01-16T23:28:54.047Z,4.40
2019-01-16T23:31:42.287Z,4.77
2019-01-16T23:34:21.633Z,4.73
2019-01-16T23:36:54.341Z,4.63
2019-01-16T23:39:27.102Z,4.13
2019-01-16T23:42:03.162Z,4.27
2019-01-16T23:44:36.018Z,4.30
2019-01-16T23:47:24.776Z,4.47
2019-01-16T23:50:03.535Z,4.37
2019-01-16T23:52:36.580Z,4.23
2019-01-16T23:55:08.840Z,4.47
2019-01-16T23:57:47.980Z,4.80
